Time;durP1;ratioP1;P1;durP2;ratioP2;P2;SDS_P1;SDS_P2;PMS_P1;PMS_P2;Temp;Humidity;BMP_temperature;BMP_pressure;BME280_temperature;BME280_humidity;BME280_pressure;Samples;Min_cycle;Max_cycle;Signal;HPM_P1;HPM_P2
2021/07/21 00:02:13;;;;;;;;;;;26.60;95.60;;;;;;1829105;77;20206;-88
2021/07/21 00:06:26;;;;;;;;;;;26.60;95.60;;;;;;1834778;77;20238;-86
2021/07/21 00:07:58;;;;;;;;;;;26.70;95.60;;;;;;1796681;78;20484;-86
2021/07/21 00:10:31;;;;;;;;;;;26.70;95.70;;;;;;1824846;77;20245;-88
2021/07/21 00:15:34;;;;;;;;;;;26.70;95.70;;;;;;1869728;75;20219;-88
2021/07/21 00:18:20;;;;;;;;;;;26.70;95.60;;;;;;1895595;74;20614;-88
2021/07/21 00:20:44;;;;;;;;;;;26.80;95.70;;;;;;1905605;74;20238;-91
2021/07/21 00:23:31;;;;;;;;;;;26.70;95.70;;;;;;1897520;74;20237;-94
2021/07/21 00:26:27;;;;;;;;;;;26.70;95.60;;;;;;1791627;78;20253;-90
2021/07/21 00:29:15;;;;;;;;;;;26.70;95.70;;;;;;1777358;79;20250;-89
2021/07/21 00:31:46;;;;;;;;;;;26.70;95.70;;;;;;1781200;78;20210;-89
2021/07/21 00:34:18;;;;;;;;;;;26.80;95.60;;;;;;1782798;79;20179;-87
2021/07/21 00:36:48;;;;;;;;;;;26.80;95.60;;;;;;1787543;78;20205;-91
2021/07/21 00:39:22;;;;;;;;;;;26.80;95.50;;;;;;1795762;78;20423;-89
2021/07/21 00:42:01;;;;;;;;;;;26.90;95.60;;;;;;1789277;78;20218;-90
2021/07/21 00:44:32;;;;;;;;;;;26.90;95.40;;;;;;1791147;78;20559;-92
2021/07/21 00:47:04;;;;;;;;;;;26.90;95.80;;;;;;1792712;78;20202;-92
2021/07/21 00:49:54;;;;;;;;;;;26.90;95.40;;;;;;1784542;79;20291;-91
2021/07/21 00:52:24;;;;;;;;;;;27.00;95.40;;;;;;1772634;78;20536;-92
2021/07/21 00:54:54;;;;;;;;;;;27.00;95.20;;;;;;1794164;78;20242;-89
2021/07/21 00:57:25;;;;;;;;;;;27.10;95.00;;;;;;1855089;74;20525;-91
2021/07/21 00:59:56;;;;;;;;;;;27.10;95.10;;;;;;1905770;73;20217;-91
2021/07/21 01:02:27;;;;;;;;;;;27.10;95.20;;;;;;1889730;74;20645;-92
2021/07/21 01:05:05;;;;;;;;;;;27.20;95.20;;;;;;1865791;76;20115;-93
2021/07/21 01:07:36;;;;;;;;;;;27.20;95.00;;;;;;1879744;76;20236;-92
2021/07/21 01:10:10;;;;;;;;;;;27.40;94.90;;;;;;1884094;75;20183;-92
2021/07/21 01:12:51;;;;;;;;;;;27.40;94.70;;;;;;1866375;75;20215;-92
2021/07/21 01:15:34;;;;;;;;;;;;;;;;;;;;;
2021/07/21 01:18:13;;;;;;;;;;;27.50;94.40;;;;;;1851454;75;20180;-94
2021/07/21 01:21:25;;;;;;;;;;;27.50;94.20;;;;;;1774917;75;20162;-95
2021/07/21 01:24:11;;;;;;;;;;;;;;;;;;;;;
2021/07/21 01:26:33;;;;;;;;;;;27.60;93.90;;;;;;1763362;80;20153;-89
2021/07/21 01:29:06;;;;;;;;;;;27.70;94.00;;;;;;1767257;80;20173;-91
2021/07/21 01:31:40;;;;;;;;;;;27.80;93.90;;;;;;1757285;81;20184;-93
2021/07/21 01:34:15;;;;;;;;;;;27.90;93.70;;;;;;1795444;79;20229;-94
2021/07/21 01:36:43;;;;;;;;;;;28.00;93.50;;;;;;1790828;79;20514;-90
2021/07/21 01:39:25;;;;;;;;;;;28.10;93.00;;;;;;1790231;79;20225;-92
2021/07/21 01:41:48;;;;;;;;;;;28.10;93.10;;;;;;1781496;79;20208;-92
2021/07/21 01:44:24;;;;;;;;;;;28.20;92.70;;;;;;1785418;79;20246;-90
2021/07/21 01:47:14;;;;;;;;;;;28.20;92.50;;;;;;1785546;78;20212;-93
2021/07/21 01:49:43;;;;;;;;;;;28.10;92.60;;;;;;1782741;79;20519;-92
2021/07/21 01:52:23;;;;;;;;;;;28.20;92.70;;;;;;1794193;79;20207;-93
2021/07/21 01:55:08;;;;;;;;;;;28.20;92.90;;;;;;1811580;77;20263;-89
2021/07/21 01:57:40;;;;;;;;;;;28.20;93.10;;;;;;1810936;77;20224;-94
2021/07/21 02:00:29;;;;;;;;;;;28.30;92.70;;;;;;1788070;77;20265;-93
2021/07/21 02:02:59;;;;;;;;;;;28.40;92.70;;;;;;1819699;76;20251;-94
2021/07/21 02:05:32;;;;;;;;;;;28.50;92.00;;;;;;1841677;74;20211;-93
2021/07/21 02:08:03;;;;;;;;;;;28.50;91.80;;;;;;1829591;76;20256;-93
2021/07/21 02:10:34;;;;;;;;;;;28.60;92.00;;;;;;1850830;77;20190;-92
2021/07/21 02:13:10;;;;;;;;;;;28.60;91.80;;;;;;1849326;76;20171;-94
2021/07/21 02:15:39;;;;;;;;;;;28.60;91.60;;;;;;1832220;76;20503;-93
2021/07/21 02:21:08;;;;;;;;;;;28.60;91.40;;;;;;1750406;79;20473;-87
2021/07/21 02:23:38;;;;;;;;;;;28.60;91.60;;;;;;1781102;79;20260;-90
2021/07/21 02:26:22;;;;;;;;;;;;;;;;;;;;;
2021/07/21 02:29:00;;;;;;;;;;;28.80;91.40;;;;;;1731526;78;20221;-90
2021/07/21 02:31:41;;;;;;;;;;;29.00;91.30;;;;;;1729027;82;20273;-90
2021/07/21 02:34:15;;;;;;;;;;;29.10;91.40;;;;;;1757209;80;20176;-93
2021/07/21 02:36:54;;;;;;;;;;;29.20;90.90;;;;;;1711252;82;20230;-91
2021/07/21 02:39:30;;;;;;;;;;;29.30;90.40;;;;;;1742082;81;20214;-89
2021/07/21 02:42:15;;;;;;;;;;;;;;;;;;;;;
2021/07/21 02:44:54;;;;;;;;;;;29.60;90.30;;;;;;1700773;83;20219;-92
2021/07/21 02:48:05;;;;;;;;;;;29.60;90.10;;;;;;1699507;83;20302;-91
2021/07/21 02:50:47;;;;;;;;;;;29.80;90.10;;;;;;1684121;84;20271;-92
2021/07/21 02:53:18;;;;;;;;;;;30.00;88.90;;;;;;1684400;84;20202;-91
2021/07/21 02:55:49;;;;;;;;;;;30.00;88.10;;;;;;1675994;85;20195;-92
2021/07/21 02:58:20;;;;;;;;;;;30.00;88.60;;;;;;1721663;82;20205;-89
2021/07/21 03:00:50;;;;;;;;;;;30.00;88.70;;;;;;1710373;84;20510;-78
2021/07/21 03:03:21;;;;;;;;;;;30.00;88.90;;;;;;1734001;82;20181;-79
2021/07/21 03:06:02;;;;;;;;;;;30.00;89.30;;;;;;1707205;82;20265;-78
2021/07/21 03:08:30;;;;;;;;;;;30.10;88.30;;;;;;1735416;81;21033;-82
2021/07/21 03:11:07;;;;;;;;;;;30.10;88.30;;;;;;1735744;81;20274;-80
2021/07/21 03:13:42;;;;;;;;;;;30.20;87.30;;;;;;1731016;81;20632;-77
2021/07/21 03:16:11;;;;;;;;;;;30.20;86.80;;;;;;1737961;82;20254;-77
2021/07/21 03:18:41;;;;;;;;;;;30.20;87.10;;;;;;1734558;82;20643;-77
2021/07/21 03:21:11;;;;;;;;;;;30.20;87.40;;;;;;1738786;77;20252;-77
2021/07/21 03:23:41;;;;;;;;;;;30.20;87.20;;;;;;1813290;78;20456;-78
2021/07/21 03:26:11;;;;;;;;;;;30.20;87.70;;;;;;1861974;76;20197;-79
2021/07/21 03:28:41;;;;;;;;;;;30.30;87.70;;;;;;1856695;77;20511;-78
2021/07/21 03:31:12;;;;;;;;;;;30.30;86.90;;;;;;1876838;75;20119;-78
2021/07/21 03:33:43;;;;;;;;;;;30.40;87.10;;;;;;1878590;74;20227;-78
2021/07/21 03:36:13;;;;;;;;;;;30.40;87.20;;;;;;1844666;77;20238;-78
2021/07/21 03:38:43;;;;;;;;;;;30.50;86.20;;;;;;1822996;77;20191;-78
2021/07/21 03:41:13;;;;;;;;;;;30.50;85.90;;;;;;1796849;77;20209;-77
2021/07/21 03:43:44;;;;;;;;;;;30.40;85.40;;;;;;1825493;77;20451;-78
2021/07/21 03:46:15;;;;;;;;;;;30.40;85.70;;;;;;1830992;77;20345;-75
2021/07/21 03:48:48;;;;;;;;;;;30.40;85.70;;;;;;1826544;77;20210;-76
2021/07/21 03:51:18;;;;;;;;;;;30.40;85.80;;;;;;1827651;77;20454;-76
2021/07/21 03:53:48;;;;;;;;;;;30.30;85.80;;;;;;1829128;77;20623;-75
2021/07/21 03:56:18;;;;;;;;;;;30.30;86.40;;;;;;1830015;77;20235;-76
2021/07/21 03:58:52;;;;;;;;;;;30.30;85.50;;;;;;1818842;76;20206;-75
2021/07/21 04:01:23;;;;;;;;;;;30.30;86.00;;;;;;1819921;77;20155;-76
2021/07/21 04:03:53;;;;;;;;;;;30.30;85.90;;;;;;1828112;78;20202;-79
2021/07/21 04:06:24;;;;;;;;;;;30.30;86.10;;;;;;1829041;77;20205;-77
2021/07/21 04:08:54;;;;;;;;;;;30.40;85.70;;;;;;1832029;77;20211;-78
2021/07/21 04:11:25;;;;;;;;;;;30.50;86.30;;;;;;1838591;77;20219;-78
2021/07/21 04:20:01;;;;;;;;;;;30.80;83.30;;;;;;1692520;83;20263;-79
2021/07/21 04:22:49;;;;;;;;;;;30.70;83.40;;;;;;1688038;83;20259;-79
2021/07/21 04:31:29;;;;;;;;;;;30.60;85.10;;;;;;1624957;87;20232;-78
2021/07/21 04:34:29;;;;;;;;;;;30.60;84.80;;;;;;1598789;88;20261;-78
2021/07/21 04:39:54;;;;;;;;;;;;;;;;;;;;;
2021/07/21 04:42:37;;;;;;;;;;;30.40;84.80;;;;;;1939973;72;20456;-78
2021/07/21 04:45:28;;;;;;;;;;;30.40;85.40;;;;;;1890536;74;20126;-80
2021/07/21 04:48:03;;;;;;;;;;;30.20;85.40;;;;;;1897795;75;20197;-80
2021/07/21 04:50:32;;;;;;;;;;;30.20;86.00;;;;;;1895661;73;20173;-79
2021/07/21 04:53:30;;;;;;;;;;;30.10;86.40;;;;;;1906048;73;20131;-78
2021/07/21 04:58:36;;;;;;;;;;;30.10;86.70;;;;;;1839178;77;20152;-80
2021/07/21 05:01:09;;;;;;;;;;;30.20;87.40;;;;;;1823998;77;20192;-80
2021/07/21 05:03:39;;;;;;;;;;;30.40;87.00;;;;;;1819189;77;20199;-78
2021/07/21 05:06:09;;;;;;;;;;;30.50;87.40;;;;;;1822666;77;20614;-78
2021/07/21 05:08:39;;;;;;;;;;;30.70;86.80;;;;;;1825624;77;20222;-78
2021/07/21 05:11:16;;;;;;;;;;;30.80;84.00;;;;;;1819871;77;20369;-79
2021/07/21 05:13:45;;;;;;;;;;;30.80;84.40;;;;;;1800698;77;20189;-80
2021/07/21 05:16:34;;;;;;;;;;;30.90;83.60;;;;;;1817540;78;20244;-78
2021/07/21 05:19:06;;;;;;;;;;;31.00;84.40;;;;;;1821310;77;20209;-79
2021/07/21 05:21:54;;;;;;;;;;;31.00;83.80;;;;;;1815317;77;20525;-79
2021/07/21 05:24:25;;;;;;;;;;;31.10;84.10;;;;;;1824389;77;20188;-80
2021/07/21 05:30:24;;;;;;;;;;;31.30;83.60;;;;;;1734760;80;20209;-79
2021/07/21 05:32:54;;;;;;;;;;;31.30;82.30;;;;;;1712374;83;20260;-80
2021/07/21 05:35:29;;;;;;;;;;;31.30;82.60;;;;;;1736738;81;20474;-80
2021/07/21 05:38:07;;;;;;;;;;;31.30;83.30;;;;;;1751497;81;20219;-78
2021/07/21 05:40:37;;;;;;;;;;;31.30;83.20;;;;;;1753574;81;20223;-79
2021/07/21 05:43:10;;;;;;;;;;;31.30;83.50;;;;;;1762217;81;20233;-78
2021/07/21 05:45:39;;;;;;;;;;;31.30;83.40;;;;;;1761074;81;20758;-78
2021/07/21 05:48:54;;;;;;;;;;;31.30;83.50;;;;;;1760867;81;20332;-78
2021/07/21 05:50:47;;;;;;;;;;;31.20;82.30;;;;;;1739028;81;20246;-79
2021/07/21 05:53:25;;;;;;;;;;;31.20;83.10;;;;;;1761102;79;20263;-80
2021/07/21 05:55:55;;;;;;;;;;;31.20;84.00;;;;;;1809271;78;20293;-80
2021/07/21 05:58:24;;;;;;;;;;;31.20;83.30;;;;;;1819764;78;20389;-80
2021/07/21 06:01:00;;;;;;;;;;;31.10;82.80;;;;;;1811042;77;20246;-81
2021/07/21 06:03:39;;;;;;;;;;;31.10;83.50;;;;;;1837600;75;20151;-79
2021/07/21 06:06:14;;;;;;;;;;;31.10;84.20;;;;;;1901008;75;20276;-80
2021/07/21 06:08:51;;;;;;;;;;;31.30;82.60;;;;;;1896517;73;20156;-79
2021/07/21 06:11:36;;;;;;;;;;;31.30;83.20;;;;;;1900618;74;20211;-80
2021/07/21 06:14:25;;;;;;;;;;;31.50;82.30;;;;;;1899076;75;20550;-79
2021/07/21 06:16:43;;;;;;;;;;;31.50;82.70;;;;;;1899216;75;20439;-79
2021/07/21 06:19:13;;;;;;;;;;;31.50;82.30;;;;;;1901377;75;20191;-80
2021/07/21 06:21:44;;;;;;;;;;;31.60;81.70;;;;;;1901021;74;20397;-79
2021/07/21 06:24:17;;;;;;;;;;;31.70;81.70;;;;;;1899887;75;20334;-79
2021/07/21 06:26:48;;;;;;;;;;;31.70;80.90;;;;;;1903634;75;20191;-78
2021/07/21 06:29:37;;;;;;;;;;;31.70;81.40;;;;;;1876418;75;20241;-79
2021/07/21 06:32:08;;;;;;;;;;;31.70;81.00;;;;;;1866252;77;20177;-78
2021/07/21 06:34:49;;;;;;;;;;;31.70;80.30;;;;;;1869262;77;20224;-80
2021/07/21 06:37:15;;;;;;;;;;;31.70;80.10;;;;;;1860642;76;20202;-79
2021/07/21 06:39:46;;;;;;;;;;;31.80;79.10;;;;;;1876651;76;20134;-79
2021/07/21 06:42:16;;;;;;;;;;;31.80;79.70;;;;;;1864897;76;20478;-79
2021/07/21 06:45:02;;;;;;;;;;;31.90;79.70;;;;;;1892608;74;20198;-78
2021/07/21 06:47:46;;;;;;;;;;;31.90;79.70;;;;;;1819333;77;20190;-80
2021/07/21 06:50:16;;;;;;;;;;;31.80;80.10;;;;;;1885172;76;20187;-79
2021/07/21 06:52:47;;;;;;;;;;;31.80;80.80;;;;;;1873522;76;20215;-79
2021/07/21 06:55:17;;;;;;;;;;;31.90;80.80;;;;;;1860066;76;20210;-79
2021/07/21 06:57:47;;;;;;;;;;;32.00;79.00;;;;;;1881840;76;20258;-79
2021/07/21 07:00:16;;;;;;;;;;;32.10;79.10;;;;;;1855930;76;20168;-80
2021/07/21 07:02:46;;;;;;;;;;;32.10;79.20;;;;;;1895485;76;20242;-79
2021/07/21 07:05:16;;;;;;;;;;;32.20;78.70;;;;;;1896946;74;20236;-79
2021/07/21 07:07:48;;;;;;;;;;;32.20;78.00;;;;;;1893893;74;20239;-78
2021/07/21 07:10:43;;;;;;;;;;;32.20;76.90;;;;;;1893070;76;20175;-78
2021/07/21 07:13:04;;;;;;;;;;;32.20;75.90;;;;;;1887652;76;20490;-78
2021/07/21 07:15:34;;;;;;;;;;;32.20;75.90;;;;;;1884582;74;20174;-80
2021/07/21 07:18:04;;;;;;;;;;;32.10;76.90;;;;;;1884854;75;20202;-80
2021/07/21 07:20:33;;;;;;;;;;;32.10;76.40;;;;;;1882713;76;20462;-79
2021/07/21 07:23:03;;;;;;;;;;;32.00;77.70;;;;;;1884100;74;20182;-79
2021/07/21 07:28:14;;;;;;;;;;;32.00;76.20;;;;;;1810850;77;20199;-79
2021/07/21 07:30:44;;;;;;;;;;;32.10;76.20;;;;;;1811855;78;20272;-80
2021/07/21 07:33:14;;;;;;;;;;;32.20;75.80;;;;;;1831417;78;20214;-79
2021/07/21 07:35:43;;;;;;;;;;;32.30;75.80;;;;;;1828129;78;20189;-80
2021/07/21 07:38:14;;;;;;;;;;;32.40;76.20;;;;;;1816704;77;20325;-79
2021/07/21 07:40:44;;;;;;;;;;;32.40;75.80;;;;;;1823987;77;20260;-78
2021/07/21 07:43:14;;;;;;;;;;;32.50;75.90;;;;;;1792597;79;20190;-79
2021/07/21 07:45:44;;;;;;;;;;;32.60;74.60;;;;;;1799967;78;20186;-78
2021/07/21 07:48:13;;;;;;;;;;;32.70;72.70;;;;;;1832786;77;20221;-79
2021/07/21 07:50:44;;;;;;;;;;;32.80;73.00;;;;;;1832103;77;20239;-81
2021/07/21 07:53:16;;;;;;;;;;;32.80;72.10;;;;;;1799625;78;20254;-80
2021/07/21 07:55:49;;;;;;;;;;;32.70;73.30;;;;;;1748956;80;20162;-79
2021/07/21 07:58:18;;;;;;;;;;;32.70;72.60;;;;;;1777669;81;20246;-80
2021/07/21 08:00:48;;;;;;;;;;;32.80;73.40;;;;;;1799722;79;20436;-80
2021/07/21 08:03:19;;;;;;;;;;;32.90;73.50;;;;;;1834296;78;20187;-80
2021/07/21 08:05:53;;;;;;;;;;;33.00;73.10;;;;;;1855721;76;20132;-79
2021/07/21 08:08:20;;;;;;;;;;;33.00;73.70;;;;;;1893851;74;20516;-80
2021/07/21 08:10:50;;;;;;;;;;;32.90;73.70;;;;;;1855681;77;20457;-79
2021/07/21 08:13:21;;;;;;;;;;;32.90;74.30;;;;;;1865153;76;20225;-79
2021/07/21 08:15:51;;;;;;;;;;;33.00;73.70;;;;;;1884634;76;20226;-79
2021/07/21 08:18:20;;;;;;;;;;;33.00;73.80;;;;;;1888701;76;20498;-78
2021/07/21 08:20:51;;;;;;;;;;;33.00;73.70;;;;;;1888622;75;20198;-78
2021/07/21 08:23:27;;;;;;;;;;;32.90;72.90;;;;;;1891240;76;20248;-80
2021/07/21 08:26:13;;;;;;;;;;;32.80;73.90;;;;;;1886470;74;20211;-79
2021/07/21 08:28:44;;;;;;;;;;;32.70;74.10;;;;;;1872100;75;20462;-80
2021/07/21 08:31:24;;;;;;;;;;;32.70;74.70;;;;;;1832536;78;20174;-81
2021/07/21 08:34:01;;;;;;;;;;;32.70;73.70;;;;;;1828400;78;20451;-79
2021/07/21 08:36:33;;;;;;;;;;;32.70;72.80;;;;;;1823389;78;20205;-80
2021/07/21 08:39:09;;;;;;;;;;;32.70;72.70;;;;;;1814398;78;20184;-79
2021/07/21 08:41:49;;;;;;;;;;;32.60;73.00;;;;;;1826461;78;20209;-79
2021/07/21 08:44:27;;;;;;;;;;;32.60;74.10;;;;;;1827230;78;20200;-79
2021/07/21 08:46:57;;;;;;;;;;;32.60;74.60;;;;;;1880179;76;20206;-78
2021/07/21 08:49:26;;;;;;;;;;;32.70;73.90;;;;;;1828046;78;20518;-78
2021/07/21 08:52:11;;;;;;;;;;;;;;;;;;;;;
2021/07/21 08:54:59;;;;;;;;;;;32.60;74.00;;;;;;1750060;81;20187;-78
2021/07/21 08:57:31;;;;;;;;;;;32.60;73.60;;;;;;1752287;80;20293;-78
2021/07/21 09:00:02;;;;;;;;;;;32.60;73.10;;;;;;1793374;78;20258;-78
2021/07/21 09:02:31;;;;;;;;;;;32.70;73.40;;;;;;1793039;78;20190;-79
2021/07/21 09:05:04;;;;;;;;;;;32.70;73.00;;;;;;1791022;78;20286;-78
2021/07/21 09:07:35;;;;;;;;;;;32.60;72.70;;;;;;1790886;78;20201;-81
2021/07/21 09:10:06;;;;;;;;;;;32.60;72.80;;;;;;1789992;78;20428;-79
2021/07/21 09:12:37;;;;;;;;;;;32.60;72.40;;;;;;1788381;79;20448;-79
2021/07/21 09:15:07;;;;;;;;;;;32.60;72.40;;;;;;1785225;80;20220;-80
2021/07/21 09:17:37;;;;;;;;;;;32.60;72.60;;;;;;1787113;78;20586;-79
2021/07/21 09:20:08;;;;;;;;;;;32.60;72.90;;;;;;1792825;78;20286;-79
2021/07/21 09:22:39;;;;;;;;;;;32.60;72.00;;;;;;1792154;78;20279;-77
2021/07/21 09:25:09;;;;;;;;;;;;;;;;;;1802650;78;20227;-78
2021/07/21 09:27:40;;;;;;;;;;;32.60;71.80;;;;;;1787876;78;20460;-79
2021/07/21 09:30:10;;;;;;;;;;;32.60;72.10;;;;;;1788127;79;20267;-80
2021/07/21 09:32:41;;;;;;;;;;;32.60;72.00;;;;;;1858731;75;20217;-79
2021/07/21 09:35:12;;;;;;;;;;;32.60;72.20;;;;;;1877479;74;20128;-79
2021/07/21 09:37:43;;;;;;;;;;;32.50;72.60;;;;;;1882459;76;20192;-79
2021/07/21 09:40:13;;;;;;;;;;;32.60;72.70;;;;;;1863049;76;20188;-79
2021/07/21 09:42:44;;;;;;;;;;;32.60;72.00;;;;;;1870071;76;20128;-79
2021/07/21 09:45:20;;;;;;;;;;;32.60;71.30;;;;;;1816287;77;20518;-76
2021/07/21 09:47:47;;;;;;;;;;;32.60;71.50;;;;;;1839543;76;20500;-78
2021/07/21 09:50:23;;;;;;;;;;;32.60;70.10;;;;;;1882270;75;20230;-77
2021/07/21 09:52:50;;;;;;;;;;;32.60;70.30;;;;;;1874549;76;20187;-78
2021/07/21 09:55:20;;;;;;;;;;;32.60;70.40;;;;;;1822389;77;20244;-80
2021/07/21 09:57:51;;;;;;;;;;;32.50;71.40;;;;;;1839653;77;20280;-78
2021/07/21 10:00:22;;;;;;;;;;;32.50;71.50;;;;;;1855661;76;20226;-79
2021/07/21 10:02:53;;;;;;;;;;;32.50;72.00;;;;;;1854471;76;20224;-79
2021/07/21 10:05:22;;;;;;;;;;;32.40;72.10;;;;;;1851967;76;20499;-79
2021/07/21 10:07:52;;;;;;;;;;;32.40;72.40;;;;;;1856105;76;20168;-79
2021/07/21 10:10:22;;;;;;;;;;;32.40;72.30;;;;;;1877061;74;20188;-79
2021/07/21 10:12:53;;;;;;;;;;;32.40;72.40;;;;;;1867879;75;20164;-77
2021/07/21 10:15:23;;;;;;;;;;;32.30;72.40;;;;;;1872810;75;20542;-76
2021/07/21 10:17:53;;;;;;;;;;;32.30;73.00;;;;;;1857767;75;20191;-76
2021/07/21 10:20:23;;;;;;;;;;;32.30;73.30;;;;;;1853883;76;20310;-78
2021/07/21 10:22:53;;;;;;;;;;;32.20;73.80;;;;;;1858694;75;20171;-77
2021/07/21 10:25:23;;;;;;;;;;;32.20;73.40;;;;;;1866574;75;20173;-78
2021/07/21 10:27:54;;;;;;;;;;;32.10;73.10;;;;;;1854678;76;20207;-78
2021/07/21 10:30:24;;;;;;;;;;;32.10;72.30;;;;;;1863663;75;20216;-78
2021/07/21 10:32:56;;;;;;;;;;;32.00;72.50;;;;;;1864502;76;20578;-78
2021/07/21 10:35:27;;;;;;;;;;;32.00;71.50;;;;;;1853576;76;20464;-78
2021/07/21 10:37:57;;;;;;;;;;;32.00;71.80;;;;;;1862288;75;20305;-78
2021/07/21 10:40:28;;;;;;;;;;;31.90;72.10;;;;;;1859454;75;20134;-78
2021/07/21 10:42:59;;;;;;;;;;;32.00;72.00;;;;;;1867421;75;20196;-77
2021/07/21 10:45:31;;;;;;;;;;;31.90;72.30;;;;;;1869014;76;20274;-77
2021/07/21 10:50:48;;;;;;;;;;;32.00;72.30;;;;;;1837551;76;20519;-79
2021/07/21 10:53:11;;;;;;;;;;;31.90;72.60;;;;;;1851490;76;20205;-78
2021/07/21 10:55:44;;;;;;;;;;;31.90;72.80;;;;;;1846000;77;20216;-78
2021/07/21 11:00:42;;;;;;;;;;;31.90;73.10;;;;;;1863043;76;20203;-78
2021/07/21 11:03:14;;;;;;;;;;;31.80;73.60;;;;;;1861772;76;20241;-79
2021/07/21 11:05:48;;;;;;;;;;;31.80;74.20;;;;;;1867794;75;20165;-77
2021/07/21 11:08:16;;;;;;;;;;;31.70;74.70;;;;;;1884098;76;20233;-77
2021/07/21 11:10:47;;;;;;;;;;;31.70;75.10;;;;;;1867038;76;20267;-78
2021/07/21 11:13:18;;;;;;;;;;;31.60;75.40;;;;;;1833871;77;20184;-78
2021/07/21 11:15:50;;;;;;;;;;;31.60;76.00;;;;;;1867107;75;20185;-77
2021/07/21 11:18:21;;;;;;;;;;;31.60;76.40;;;;;;1880867;75;20227;-78
2021/07/21 11:20:51;;;;;;;;;;;31.50;76.70;;;;;;1888491;76;20206;-78
2021/07/21 11:23:24;;;;;;;;;;;31.50;76.40;;;;;;1887676;76;20201;-79
2021/07/21 11:25:55;;;;;;;;;;;31.40;76.00;;;;;;1877655;76;20222;-79
2021/07/21 11:28:26;;;;;;;;;;;31.40;75.40;;;;;;1859231;76;20258;-77
2021/07/21 11:30:57;;;;;;;;;;;31.40;74.80;;;;;;1886512;76;20195;-78
2021/07/21 11:33:28;;;;;;;;;;;31.30;74.80;;;;;;1853618;76;20515;-78
2021/07/21 11:35:58;;;;;;;;;;;31.30;74.20;;;;;;1889742;75;20466;-78
2021/07/21 11:38:29;;;;;;;;;;;31.20;74.20;;;;;;1886671;76;20230;-77
2021/07/21 11:40:58;;;;;;;;;;;31.10;74.50;;;;;;1878590;75;20199;-77
2021/07/21 11:43:29;;;;;;;;;;;31.10;74.70;;;;;;1850985;76;20265;-77
2021/07/21 11:46:00;;;;;;;;;;;31.00;75.10;;;;;;1865433;76;20243;-78
2021/07/21 11:48:31;;;;;;;;;;;31.00;75.40;;;;;;1882734;75;20201;-79
2021/07/21 11:51:01;;;;;;;;;;;30.90;75.70;;;;;;1847835;76;20151;-78
2021/07/21 11:53:31;;;;;;;;;;;30.90;75.90;;;;;;1878169;75;20217;-80
2021/07/21 11:56:02;;;;;;;;;;;30.90;76.40;;;;;;1876712;76;20233;-79
2021/07/21 11:58:32;;;;;;;;;;;30.80;76.50;;;;;;1876443;76;20223;-81
2021/07/21 12:01:05;;;;;;;;;;;30.80;77.00;;;;;;1884323;76;20443;-79
2021/07/21 12:03:34;;;;;;;;;;;30.70;77.40;;;;;;1883110;76;20124;-80
2021/07/21 12:06:05;;;;;;;;;;;30.70;77.60;;;;;;1880244;75;20227;-80
2021/07/21 12:08:35;;;;;;;;;;;30.60;77.90;;;;;;1878617;75;20130;-80
2021/07/21 12:11:06;;;;;;;;;;;30.60;78.20;;;;;;1876105;75;20205;-79
2021/07/21 12:13:39;;;;;;;;;;;30.60;78.60;;;;;;1862835;75;20181;-85
2021/07/21 12:16:07;;;;;;;;;;;30.50;78.80;;;;;;1856180;76;20128;-90
2021/07/21 12:19:09;;;;;;;;;;;30.50;79.20;;;;;;1844776;76;20207;-91
2021/07/21 12:21:42;;;;;;;;;;;30.50;79.30;;;;;;1729529;81;20276;-91
2021/07/21 12:24:18;;;;;;;;;;;30.50;80.70;;;;;;1706756;82;20229;-90
2021/07/21 12:29:45;;;;;;;;;;;;;;;;;;;;;
2021/07/21 12:32:53;;;;;;;;;;;;;;;;;;;;;
2021/07/21 12:35:22;;;;;;;;;;;30.40;80.50;;;;;;1661013;85;20206;-91
2021/07/21 12:42:28;;;;;;;;;;;30.30;80.90;;;;;;2058941;68;20300;-90
2021/07/21 12:45:38;;;;;;;;;;;30.30;81.20;;;;;;2048656;69;20193;-90
2021/07/21 12:50:40;;;;;;;;;;;30.20;81.50;;;;;;1939769;73;20783;-90
2021/07/21 13:02:09;;;;;;;;;;;30.20;82.00;;;;;;1674631;83;20271;-90
2021/07/21 13:24:05;;;;;;;;;;;30.10;83.50;;;;;;1968371;70;20234;-91
2021/07/21 13:27:01;;;;;;;;;;;30.00;83.90;;;;;;1944552;72;20266;-88
2021/07/21 13:30:25;;;;;;;;;;;;;;;;;;;;;
2021/07/21 13:32:47;;;;;;;;;;;;;;;;;;;;;
2021/07/21 13:35:32;;;;;;;;;;;30.00;84.40;;;;;;1916934;72;20432;-91
2021/07/21 13:38:25;;;;;;;;;;;30.00;84.40;;;;;;2003562;70;20080;-89
2021/07/21 13:41:42;;;;;;;;;;;29.90;84.60;;;;;;2009434;69;20176;-89
2021/07/21 13:44:09;;;;;;;;;;;29.90;84.70;;;;;;1959521;70;20091;-89
2021/07/21 13:46:54;;;;;;;;;;;29.90;84.70;;;;;;1837790;76;20178;-88
2021/07/21 13:49:57;;;;;;;;;;;;;;;;;;;;;
2021/07/21 13:52:56;;;;;;;;;;;;;;;;;;;;;
2021/07/21 13:55:49;;;;;;;;;;;;;;;;;;;;;
2021/07/21 14:03:58;;;;;;;;;;;29.80;84.90;;;;;;1763356;79;20142;-89
2021/07/21 14:28:50;;;;;;;;;;;;;;;;;;;;;
2021/07/21 14:31:46;;;;;;;;;;;;;;;;;;;;;
2021/07/21 14:34:27;;;;;;;;;;;29.80;85.20;;;;;;1815246;77;20156;-91
2021/07/21 14:49:26;;;;;;;;;;;;;;;;;;;;;
2021/07/21 14:52:08;;;;;;;;;;;29.70;85.90;;;;;;1598930;89;20168;-89
2021/07/21 14:58:02;;;;;;;;;;;29.70;86.40;;;;;;1492185;94;20228;-89
2021/07/21 15:01:16;;;;;;;;;;;;;;;;;;;;;
2021/07/21 15:25:31;;;;;;;;;;;29.60;86.70;;;;;;1951259;72;20629;-91
2021/07/21 15:28:34;;;;;;;;;;;;;;;;;;;;;
2021/07/21 15:31:00;;;;;;;;;;;29.40;88.50;;;;;;1882231;75;20146;-90
2021/07/21 15:33:51;;;;;;;;;;;;;;;;;;;;;
2021/07/21 15:49:51;;;;;;;;;;;29.40;88.80;;;;;;1947891;72;20578;-91
2021/07/21 15:52:23;;;;;;;;;;;29.30;89.30;;;;;;1890900;74;20222;-91
2021/07/21 15:55:31;;;;;;;;;;;29.30;89.30;;;;;;1907788;73;20185;-90
2021/07/21 15:57:49;;;;;;;;;;;29.30;89.50;;;;;;1902123;74;20204;-90
2021/07/21 16:00:05;;;;;;;;;;;29.30;89.50;;;;;;1836335;75;20185;-91
2021/07/21 16:02:46;;;;;;;;;;;29.20;89.30;;;;;;1851621;76;20197;-89
2021/07/21 16:05:21;;;;;;;;;;;29.20;89.40;;;;;;1862018;76;20397;-89
2021/07/21 16:08:09;;;;;;;;;;;29.20;89.50;;;;;;1859865;75;20178;-90
2021/07/21 16:11:06;;;;;;;;;;;;;;;;;;;;;
2021/07/21 16:13:44;;;;;;;;;;;29.20;89.50;;;;;;1784603;79;20326;-90
2021/07/21 16:16:31;;;;;;;;;;;;;;;;;;;;;
2021/07/21 16:19:12;;;;;;;;;;;;;;;;;;;;;
2021/07/21 16:21:40;;;;;;;;;;;29.20;90.00;;;;;;1727531;81;20696;-90
2021/07/21 16:24:28;;;;;;;;;;;;;;;;;;;;;
2021/07/21 16:27:25;;;;;;;;;;;29.20;90.10;;;;;;1685756;83;20397;-89
2021/07/21 16:32:51;;;;;;;;;;;29.10;90.60;;;;;;1951185;73;20210;-90
2021/07/21 16:35:25;;;;;;;;;;;29.10;90.30;;;;;;1923752;73;20486;-89
2021/07/21 16:37:58;;;;;;;;;;;29.10;90.40;;;;;;1919993;73;20116;-90
2021/07/21 16:40:38;;;;;;;;;;;29.10;90.40;;;;;;1922604;73;20245;-92
2021/07/21 16:46:25;;;;;;;;;;;29.00;90.50;;;;;;1752393;78;20190;-90
2021/07/21 16:48:58;;;;;;;;;;;29.00;90.50;;;;;;1755891;79;20241;-91
2021/07/21 16:51:32;;;;;;;;;;;29.00;90.50;;;;;;1751132;79;20361;-91
2021/07/21 16:55:42;;;;;;;;;;;;;;;;;;;;;
2021/07/21 16:57:01;;;;;;;;;;;28.90;90.50;;;;;;1667935;83;20370;-91
2021/07/21 16:59:55;;;;;;;;;;;28.90;90.60;;;;;;1630128;87;20575;-90
2021/07/21 17:02:44;;;;;;;;;;;28.90;90.60;;;;;;1633337;87;20197;-90
2021/07/21 17:08:39;;;;;;;;;;;28.90;90.60;;;;;;1946603;73;20149;-89
2021/07/21 17:11:15;;;;;;;;;;;28.90;90.60;;;;;;1910696;74;20243;-89
2021/07/21 17:13:43;;;;;;;;;;;28.80;90.60;;;;;;1868193;76;20211;-89
2021/07/21 17:16:16;;;;;;;;;;;28.90;90.60;;;;;;1852198;76;20189;-90
2021/07/21 17:19:23;;;;;;;;;;;28.80;90.70;;;;;;1858781;76;20287;-90
2021/07/21 17:21:54;;;;;;;;;;;28.90;90.70;;;;;;1879911;75;20440;-90
2021/07/21 17:24:46;;;;;;;;;;;;;;;;;;;;;
2021/07/21 17:27:40;;;;;;;;;;;;;;;;;;;;;
2021/07/21 17:30:22;;;;;;;;;;;28.80;90.80;;;;;;1772698;78;20262;-90
2021/07/21 17:33:29;;;;;;;;;;;;;;;;;;;;;
2021/07/21 17:36:15;;;;;;;;;;;28.80;90.80;;;;;;1774644;77;20871;-90
2021/07/21 17:38:48;;;;;;;;;;;28.80;90.80;;;;;;1786025;77;20192;-91
2021/07/21 17:42:02;;;;;;;;;;;28.80;90.80;;;;;;1764671;81;20266;-92
2021/07/21 17:44:28;;;;;;;;;;;28.70;90.80;;;;;;1650009;86;20665;-90
2021/07/21 17:47:32;;;;;;;;;;;;;;;;;;;;;
2021/07/21 17:50:24;;;;;;;;;;;28.70;90.80;;;;;;1592664;88;20196;-90
2021/07/21 17:56:02;;;;;;;;;;;28.70;90.90;;;;;;1904774;73;20139;-91
2021/07/21 17:58:31;;;;;;;;;;;28.70;91.00;;;;;;1909158;74;20211;-90
2021/07/21 18:01:17;;;;;;;;;;;28.70;90.90;;;;;;1916628;73;20426;-92
2021/07/21 18:03:46;;;;;;;;;;;28.70;91.00;;;;;;1915724;74;20209;-91
2021/07/21 18:06:22;;;;;;;;;;;28.60;91.00;;;;;;1920452;73;20209;-91
2021/07/21 18:08:50;;;;;;;;;;;28.60;91.00;;;;;;1916302;73;20193;-90
2021/07/21 18:11:23;;;;;;;;;;;28.60;91.00;;;;;;1913451;73;20174;-91
2021/07/21 18:13:54;;;;;;;;;;;28.60;91.10;;;;;;1946973;73;20507;-91
2021/07/21 18:16:40;;;;;;;;;;;28.60;91.10;;;;;;1946633;73;20151;-91
2021/07/21 18:19:11;;;;;;;;;;;28.60;91.20;;;;;;1905806;74;20183;-90
2021/07/21 18:21:40;;;;;;;;;;;28.60;91.30;;;;;;1908404;73;20204;-90